Des Moines International Airport Des Moines US
ICAO: KDSM
IATA: DSM
Category: Large
Scheduled Services: Yes

Elevation: 958 ft
TransAlt. 18000 ft.

Airport Communications:
APP/DEP:118.6
ATIS:119.55
CLNC DEL:134.15
GND:121.9
ANG OPS MAINT:138.15
FORT DODGE RDO:122.65
TWR:118.3
UNICOM:122.95

KDSM Zoom In..

Runways:

(A) RW 05 length 9003 ft width 150 ft
ILS 111.50 / hdg 51

(B) RW 13 length 9002 ft width 150 ft
ILS 111.90 / hdg 129

(C) RW 23 length 9003 ft width 150 ft
---- / hdg 231

(D) RW 31 length 9002 ft width 150 ft
ILS 110.30 / hdg 309

Location; KDSM
Day. 03 / Time. 09.54 Zulu
* Altimeter: 30.29
* Temperature: -04° c. -24.8°f.
* Wind from: 300° Speed 04 kn.
Dewpoint: -07° c.
Visibility: 10 Statute Miles.
Clouds: Clear (automated report).

KDSM 030954Z 30004KT 10SM CLR M04/M07 A3029 RMK AO2 SLP265 T10441067

Going to: --> -->


Wind From 300°
Speed 04 kn.

 
 
jpsmedia worldairports.se 2020   terms of use